sensor_id;sensor_type;location;lat;lon;timestamp;temperature;humidity
25963;DHT22;13760;52.588;13.406;2024-01-27T00:01:35;5.20;99.90
25963;DHT22;13760;52.588;13.406;2024-01-27T00:04:00;5.20;99.90
25963;DHT22;13760;52.588;13.406;2024-01-27T00:06:26;5.20;99.90
25963;DHT22;13760;52.588;13.406;2024-01-27T00:08:52;5.20;99.90
25963;DHT22;13760;52.588;13.406;2024-01-27T00:11:17;5.20;99.90
25963;DHT22;13760;52.588;13.406;2024-01-27T00:13:44;5.20;99.90
25963;DHT22;13760;52.588;13.406;2024-01-27T00:16:11;5.20;99.90
25963;DHT22;13760;52.588;13.406;2024-01-27T00:18:39;5.10;99.90
25963;DHT22;13760;52.588;13.406;2024-01-27T00:21:07;5.10;99.90
25963;DHT22;13760;52.588;13.406;2024-01-27T00:23:33;5.10;99.90
25963;DHT22;13760;52.588;13.406;2024-01-27T00:26:00;5.10;99.90
25963;DHT22;13760;52.588;13.406;2024-01-27T00:28:25;5.00;99.90
25963;DHT22;13760;52.588;13.406;2024-01-27T00:30:51;5.00;99.90
25963;DHT22;13760;52.588;13.406;2024-01-27T00:33:16;5.00;99.90
25963;DHT22;13760;52.588;13.406;2024-01-27T00:35:42;5.00;99.90
25963;DHT22;13760;52.588;13.406;2024-01-27T00:38:07;5.00;99.90
25963;DHT22;13760;52.588;13.406;2024-01-27T00:40:33;5.00;99.90
25963;DHT22;13760;52.588;13.406;2024-01-27T00:42:59;5.00;99.90
25963;DHT22;13760;52.588;13.406;2024-01-27T00:45:24;5.00;99.90
25963;DHT22;13760;52.588;13.406;2024-01-27T00:47:52;4.90;99.90
25963;DHT22;13760;52.588;13.406;2024-01-27T00:50:18;4.90;99.90
25963;DHT22;13760;52.588;13.406;2024-01-27T00:52:43;4.90;99.90
25963;DHT22;13760;52.588;13.406;2024-01-27T00:55:09;4.90;99.90
25963;DHT22;13760;52.588;13.406;2024-01-27T00:57:38;4.90;99.90
25963;DHT22;13760;52.588;13.406;2024-01-27T01:00:08;4.90;99.90
25963;DHT22;13760;52.588;13.406;2024-01-27T01:02:35;5.00;99.90
25963;DHT22;13760;52.588;13.406;2024-01-27T01:05:01;5.00;99.90
25963;DHT22;13760;52.588;13.406;2024-01-27T01:07:32;5.00;99.90
25963;DHT22;13760;52.588;13.406;2024-01-27T01:09:58;5.00;99.90
25963;DHT22;13760;52.588;13.406;2024-01-27T01:12:23;5.00;99.90
25963;DHT22;13760;52.588;13.406;2024-01-27T01:14:51;4.90;99.90
25963;DHT22;13760;52.588;13.406;2024-01-27T01:17:16;4.90;99.90
25963;DHT22;13760;52.588;13.406;2024-01-27T01:19:41;5.00;99.90
25963;DHT22;13760;52.588;13.406;2024-01-27T01:22:07;5.00;99.90
25963;DHT22;13760;52.588;13.406;2024-01-27T01:24:33;5.00;99.90
25963;DHT22;13760;52.588;13.406;2024-01-27T01:26:59;5.00;99.90
25963;DHT22;13760;52.588;13.406;2024-01-27T01:29:25;5.00;99.90
25963;DHT22;13760;52.588;13.406;2024-01-27T01:31:51;5.00;99.90
25963;DHT22;13760;52.588;13.406;2024-01-27T01:34:16;5.00;99.90
25963;DHT22;13760;52.588;13.406;2024-01-27T01:36:42;5.00;99.90
25963;DHT22;13760;52.588;13.406;2024-01-27T01:39:09;5.00;99.90
25963;DHT22;13760;52.588;13.406;2024-01-27T01:41:35;4.90;99.90
25963;DHT22;13760;52.588;13.406;2024-01-27T01:44:00;4.90;99.90
25963;DHT22;13760;52.588;13.406;2024-01-27T01:46:26;4.90;99.90
25963;DHT22;13760;52.588;13.406;2024-01-27T01:48:53;4.90;99.90
25963;DHT22;13760;52.588;13.406;2024-01-27T01:51:18;4.90;99.90
25963;DHT22;13760;52.588;13.406;2024-01-27T01:53:45;4.90;99.90
25963;DHT22;13760;52.588;13.406;2024-01-27T01:56:14;4.80;99.90
25963;DHT22;13760;52.588;13.406;2024-01-27T01:58:40;4.90;99.90
25963;DHT22;13760;52.588;13.406;2024-01-27T02:01:05;4.80;99.90
25963;DHT22;13760;52.588;13.406;2024-01-27T02:03:31;4.80;99.90
25963;DHT22;13760;52.588;13.406;2024-01-27T02:05:56;4.80;99.90
25963;DHT22;13760;52.588;13.406;2024-01-27T02:08:22;4.80;99.90
25963;DHT22;13760;52.588;13.406;2024-01-27T02:10:47;4.80;99.90
25963;DHT22;13760;52.588;13.406;2024-01-27T02:13:20;4.80;99.90
25963;DHT22;13760;52.588;13.406;2024-01-27T02:15:46;4.80;99.90
25963;DHT22;13760;52.588;13.406;2024-01-27T02:18:12;4.80;99.90
25963;DHT22;13760;52.588;13.406;2024-01-27T02:20:38;4.80;99.90
25963;DHT22;13760;52.588;13.406;2024-01-27T02:23:04;4.90;99.90
25963;DHT22;13760;52.588;13.406;2024-01-27T02:25:33;4.90;99.90
25963;DHT22;13760;52.588;13.406;2024-01-27T02:27:59;4.90;99.90
25963;DHT22;13760;52.588;13.406;2024-01-27T02:30:25;4.90;99.90
25963;DHT22;13760;52.588;13.406;2024-01-27T02:32:51;4.90;99.90
25963;DHT22;13760;52.588;13.406;2024-01-27T02:35:17;4.90;99.90
25963;DHT22;13760;52.588;13.406;2024-01-27T02:37:43;4.90;99.90
25963;DHT22;13760;52.588;13.406;2024-01-27T02:40:09;4.90;99.90
25963;DHT22;13760;52.588;13.406;2024-01-27T02:42:35;5.00;99.90
25963;DHT22;13760;52.588;13.406;2024-01-27T02:45:02;4.90;99.90
25963;DHT22;13760;52.588;13.406;2024-01-27T02:47:27;5.00;99.90
25963;DHT22;13760;52.588;13.406;2024-01-27T02:49:53;5.00;99.90
25963;DHT22;13760;52.588;13.406;2024-01-27T02:52:18;4.90;99.90
25963;DHT22;13760;52.588;13.406;2024-01-27T02:54:44;4.90;99.90
25963;DHT22;13760;52.588;13.406;2024-01-27T02:57:09;4.90;99.90
25963;DHT22;13760;52.588;13.406;2024-01-27T02:59:35;4.90;99.90
25963;DHT22;13760;52.588;13.406;2024-01-27T03:02:00;4.90;99.90
25963;DHT22;13760;52.588;13.406;2024-01-27T03:04:26;4.80;99.90
25963;DHT22;13760;52.588;13.406;2024-01-27T03:06:51;4.90;99.90
25963;DHT22;13760;52.588;13.406;2024-01-27T03:09:17;4.90;99.90
25963;DHT22;13760;52.588;13.406;2024-01-27T03:11:43;4.90;99.90
25963;DHT22;13760;52.588;13.406;2024-01-27T03:14:08;4.90;99.90
25963;DHT22;13760;52.588;13.406;2024-01-27T03:16:36;4.90;99.90
25963;DHT22;13760;52.588;13.406;2024-01-27T03:19:01;4.90;99.90
25963;DHT22;13760;52.588;13.406;2024-01-27T03:21:27;4.80;99.90
25963;DHT22;13760;52.588;13.406;2024-01-27T03:23:53;4.80;99.90
25963;DHT22;13760;52.588;13.406;2024-01-27T03:26:18;4.80;99.90
25963;DHT22;13760;52.588;13.406;2024-01-27T03:28:44;4.80;99.90
25963;DHT22;13760;52.588;13.406;2024-01-27T03:31:09;4.80;99.90
25963;DHT22;13760;52.588;13.406;2024-01-27T03:33:35;4.80;99.90
25963;DHT22;13760;52.588;13.406;2024-01-27T03:36:00;4.80;99.90
25963;DHT22;13760;52.588;13.406;2024-01-27T03:38:26;4.70;99.90
25963;DHT22;13760;52.588;13.406;2024-01-27T03:40:51;4.70;99.90
25963;DHT22;13760;52.588;13.406;2024-01-27T03:43:17;4.70;99.90
25963;DHT22;13760;52.588;13.406;2024-01-27T03:45:43;4.60;99.90
25963;DHT22;13760;52.588;13.406;2024-01-27T03:48:08;4.60;99.90
25963;DHT22;13760;52.588;13.406;2024-01-27T03:50:33;4.50;99.90
25963;DHT22;13760;52.588;13.406;2024-01-27T03:52:59;4.50;99.90
25963;DHT22;13760;52.588;13.406;2024-01-27T03:55:24;4.40;99.90
25963;DHT22;13760;52.588;13.406;2024-01-27T03:57:50;4.40;99.90
25963;DHT22;13760;52.588;13.406;2024-01-27T04:00:16;4.30;99.90
25963;DHT22;13760;52.588;13.406;2024-01-27T04:02:41;4.30;99.90
25963;DHT22;13760;52.588;13.406;2024-01-27T04:05:07;4.20;99.90
25963;DHT22;13760;52.588;13.406;2024-01-27T04:07:32;4.20;99.90
25963;DHT22;13760;52.588;13.406;2024-01-27T04:09:58;4.20;99.90
25963;DHT22;13760;52.588;13.406;2024-01-27T04:12:23;4.10;99.90
25963;DHT22;13760;52.588;13.406;2024-01-27T04:14:49;4.10;99.90
25963;DHT22;13760;52.588;13.406;2024-01-27T04:17:15;4.00;99.90
25963;DHT22;13760;52.588;13.406;2024-01-27T04:19:40;4.00;99.90
25963;DHT22;13760;52.588;13.406;2024-01-27T04:22:05;4.00;99.90
25963;DHT22;13760;52.588;13.406;2024-01-27T04:24:31;4.00;99.90
25963;DHT22;13760;52.588;13.406;2024-01-27T04:26:58;4.00;99.90
25963;DHT22;13760;52.588;13.406;2024-01-27T04:29:24;4.00;99.90
25963;DHT22;13760;52.588;13.406;2024-01-27T04:31:49;4.00;99.90
25963;DHT22;13760;52.588;13.406;2024-01-27T04:34:15;4.10;99.90
25963;DHT22;13760;52.588;13.406;2024-01-27T04:36:40;4.10;99.90
25963;DHT22;13760;52.588;13.406;2024-01-27T04:39:06;4.10;99.90
25963;DHT22;13760;52.588;13.406;2024-01-27T04:41:31;4.20;99.90
25963;DHT22;13760;52.588;13.406;2024-01-27T04:43:57;4.20;99.90
25963;DHT22;13760;52.588;13.406;2024-01-27T04:46:24;4.20;99.90
25963;DHT22;13760;52.588;13.406;2024-01-27T04:48:49;4.20;99.90
25963;DHT22;13760;52.588;13.406;2024-01-27T04:51:15;4.20;99.90
25963;DHT22;13760;52.588;13.406;2024-01-27T04:53:40;4.30;99.90
25963;DHT22;13760;52.588;13.406;2024-01-27T04:56:06;4.30;99.90
25963;DHT22;13760;52.588;13.406;2024-01-27T04:58:34;4.30;99.90
25963;DHT22;13760;52.588;13.406;2024-01-27T05:01:00;4.30;99.90
25963;DHT22;13760;52.588;13.406;2024-01-27T05:03:25;4.40;99.90
25963;DHT22;13760;52.588;13.406;2024-01-27T05:05:51;4.40;99.90
25963;DHT22;13760;52.588;13.406;2024-01-27T05:08:16;4.40;99.90
25963;DHT22;13760;52.588;13.406;2024-01-27T05:10:42;4.40;99.90
25963;DHT22;13760;52.588;13.406;2024-01-27T05:13:07;4.40;99.90
25963;DHT22;13760;52.588;13.406;2024-01-27T05:15:33;4.40;99.90
25963;DHT22;13760;52.588;13.406;2024-01-27T05:17:59;4.30;99.90
25963;DHT22;13760;52.588;13.406;2024-01-27T05:20:24;4.30;99.90
25963;DHT22;13760;52.588;13.406;2024-01-27T05:22:50;4.30;99.90
25963;DHT22;13760;52.588;13.406;2024-01-27T05:25:15;4.20;99.90
25963;DHT22;13760;52.588;13.406;2024-01-27T05:27:42;4.20;99.90
25963;DHT22;13760;52.588;13.406;2024-01-27T05:30:08;4.20;99.90
25963;DHT22;13760;52.588;13.406;2024-01-27T05:32:33;4.20;99.90
25963;DHT22;13760;52.588;13.406;2024-01-27T05:34:59;4.20;99.90
25963;DHT22;13760;52.588;13.406;2024-01-27T05:37:24;4.20;99.90
25963;DHT22;13760;52.588;13.406;2024-01-27T05:39:50;4.20;99.90
25963;DHT22;13760;52.588;13.406;2024-01-27T05:42:15;4.20;99.90
25963;DHT22;13760;52.588;13.406;2024-01-27T05:44:41;4.20;99.90
25963;DHT22;13760;52.588;13.406;2024-01-27T05:47:07;4.20;99.90
25963;DHT22;13760;52.588;13.406;2024-01-27T05:49:32;4.20;99.90
25963;DHT22;13760;52.588;13.406;2024-01-27T05:51:58;4.20;99.90
25963;DHT22;13760;52.588;13.406;2024-01-27T05:54:24;4.20;99.90
25963;DHT22;13760;52.588;13.406;2024-01-27T05:56:50;4.30;99.90
25963;DHT22;13760;52.588;13.406;2024-01-27T05:59:15;4.30;99.90
25963;DHT22;13760;52.588;13.406;2024-01-27T06:01:41;4.40;99.90
25963;DHT22;13760;52.588;13.406;2024-01-27T06:04:08;4.40;99.90
25963;DHT22;13760;52.588;13.406;2024-01-27T06:06:34;4.40;99.90
25963;DHT22;13760;52.588;13.406;2024-01-27T06:08:59;4.40;99.90
25963;DHT22;13760;52.588;13.406;2024-01-27T06:11:25;4.40;99.90
25963;DHT22;13760;52.588;13.406;2024-01-27T06:13:51;4.50;99.90
25963;DHT22;13760;52.588;13.406;2024-01-27T06:16:17;4.50;99.90
25963;DHT22;13760;52.588;13.406;2024-01-27T06:18:44;4.60;99.90
25963;DHT22;13760;52.588;13.406;2024-01-27T06:21:10;4.60;99.90
25963;DHT22;13760;52.588;13.406;2024-01-27T06:23:36;4.60;99.90
25963;DHT22;13760;52.588;13.406;2024-01-27T06:26:08;4.70;99.90
25963;DHT22;13760;52.588;13.406;2024-01-27T06:28:34;4.70;99.90
25963;DHT22;13760;52.588;13.406;2024-01-27T06:31:00;4.70;99.90
25963;DHT22;13760;52.588;13.406;2024-01-27T06:33:26;4.70;99.90
25963;DHT22;13760;52.588;13.406;2024-01-27T06:35:51;4.70;99.90
25963;DHT22;13760;52.588;13.406;2024-01-27T06:38:17;4.70;99.90
25963;DHT22;13760;52.588;13.406;2024-01-27T06:40:42;4.60;99.90
25963;DHT22;13760;52.588;13.406;2024-01-27T06:43:10;4.60;99.90
25963;DHT22;13760;52.588;13.406;2024-01-27T06:45:36;4.60;99.90
25963;DHT22;13760;52.588;13.406;2024-01-27T06:48:01;4.60;99.90
25963;DHT22;13760;52.588;13.406;2024-01-27T06:50:27;4.70;99.90
25963;DHT22;13760;52.588;13.406;2024-01-27T06:52:52;4.70;99.90
25963;DHT22;13760;52.588;13.406;2024-01-27T06:55:18;4.70;99.90
25963;DHT22;13760;52.588;13.406;2024-01-27T06:57:43;4.70;99.90
25963;DHT22;13760;52.588;13.406;2024-01-27T07:00:09;4.70;99.90
25963;DHT22;13760;52.588;13.406;2024-01-27T07:02:42;4.70;99.90
25963;DHT22;13760;52.588;13.406;2024-01-27T07:05:08;4.80;99.90
25963;DHT22;13760;52.588;13.406;2024-01-27T07:07:35;4.80;99.90
25963;DHT22;13760;52.588;13.406;2024-01-27T07:10:01;4.80;99.90
25963;DHT22;13760;52.588;13.406;2024-01-27T07:12:26;4.80;99.90
25963;DHT22;13760;52.588;13.406;2024-01-27T07:14:52;4.80;99.90
25963;DHT22;13760;52.588;13.406;2024-01-27T07:17:18;4.80;99.90
25963;DHT22;13760;52.588;13.406;2024-01-27T07:19:43;4.80;99.90
25963;DHT22;13760;52.588;13.406;2024-01-27T07:22:09;4.80;99.90
25963;DHT22;13760;52.588;13.406;2024-01-27T07:24:35;4.80;99.90
25963;DHT22;13760;52.588;13.406;2024-01-27T07:27:01;4.80;99.90
25963;DHT22;13760;52.588;13.406;2024-01-27T07:29:27;4.80;99.90
25963;DHT22;13760;52.588;13.406;2024-01-27T07:31:53;4.80;99.90
25963;DHT22;13760;52.588;13.406;2024-01-27T07:34:19;4.80;99.90
25963;DHT22;13760;52.588;13.406;2024-01-27T07:36:44;4.80;99.90
25963;DHT22;13760;52.588;13.406;2024-01-27T07:39:10;4.80;99.90
25963;DHT22;13760;52.588;13.406;2024-01-27T07:41:36;4.80;99.90
25963;DHT22;13760;52.588;13.406;2024-01-27T07:46:35;4.90;99.90
25963;DHT22;13760;52.588;13.406;2024-01-27T07:49:01;4.90;99.90
25963;DHT22;13760;52.588;13.406;2024-01-27T07:51:28;4.90;99.90
25963;DHT22;13760;52.588;13.406;2024-01-27T07:53:53;5.00;99.90
25963;DHT22;13760;52.588;13.406;2024-01-27T07:56:19;5.00;99.90
25963;DHT22;13760;52.588;13.406;2024-01-27T07:58:44;5.00;99.90
25963;DHT22;13760;52.588;13.406;2024-01-27T08:01:10;5.00;99.90
25963;DHT22;13760;52.588;13.406;2024-01-27T08:03:35;5.00;99.90
25963;DHT22;13760;52.588;13.406;2024-01-27T08:06:05;5.00;99.90
25963;DHT22;13760;52.588;13.406;2024-01-27T08:08:30;5.00;99.90
25963;DHT22;13760;52.588;13.406;2024-01-27T08:10:56;5.10;99.90
25963;DHT22;13760;52.588;13.406;2024-01-27T08:13:22;5.10;99.90
25963;DHT22;13760;52.588;13.406;2024-01-27T08:15:47;5.10;99.90
25963;DHT22;13760;52.588;13.406;2024-01-27T08:18:13;5.10;99.90
25963;DHT22;13760;52.588;13.406;2024-01-27T08:20:38;5.20;99.90
25963;DHT22;13760;52.588;13.406;2024-01-27T08:23:04;5.20;99.90
25963;DHT22;13760;52.588;13.406;2024-01-27T08:25:29;5.20;99.90
25963;DHT22;13760;52.588;13.406;2024-01-27T08:27:55;5.30;99.90
25963;DHT22;13760;52.588;13.406;2024-01-27T08:30:20;5.30;99.90
25963;DHT22;13760;52.588;13.406;2024-01-27T08:32:46;5.30;99.90
25963;DHT22;13760;52.588;13.406;2024-01-27T08:35:11;5.40;99.90
25963;DHT22;13760;52.588;13.406;2024-01-27T08:37:37;5.40;99.90
25963;DHT22;13760;52.588;13.406;2024-01-27T08:40:05;5.40;99.90
25963;DHT22;13760;52.588;13.406;2024-01-27T08:42:31;5.50;99.90
25963;DHT22;13760;52.588;13.406;2024-01-27T08:44:56;5.50;99.90
25963;DHT22;13760;52.588;13.406;2024-01-27T08:47:22;5.50;99.90
25963;DHT22;13760;52.588;13.406;2024-01-27T08:49:47;5.60;99.90
25963;DHT22;13760;52.588;13.406;2024-01-27T08:52:13;5.60;99.90
25963;DHT22;13760;52.588;13.406;2024-01-27T08:54:38;5.60;99.90
25963;DHT22;13760;52.588;13.406;2024-01-27T08:57:04;5.70;99.90
25963;DHT22;13760;52.588;13.406;2024-01-27T08:59:30;5.70;99.90
25963;DHT22;13760;52.588;13.406;2024-01-27T09:01:55;5.70;99.90
25963;DHT22;13760;52.588;13.406;2024-01-27T09:04:21;5.70;99.90
25963;DHT22;13760;52.588;13.406;2024-01-27T09:06:46;5.80;99.90
25963;DHT22;13760;52.588;13.406;2024-01-27T09:09:12;5.80;99.90
25963;DHT22;13760;52.588;13.406;2024-01-27T09:11:38;5.90;99.90
25963;DHT22;13760;52.588;13.406;2024-01-27T09:14:03;5.90;99.90
25963;DHT22;13760;52.588;13.406;2024-01-27T09:16:30;6.00;99.90
25963;DHT22;13760;52.588;13.406;2024-01-27T09:18:55;6.00;99.90
25963;DHT22;13760;52.588;13.406;2024-01-27T09:21:21;6.00;99.90
25963;DHT22;13760;52.588;13.406;2024-01-27T09:23:53;6.10;99.90
25963;DHT22;13760;52.588;13.406;2024-01-27T09:26:19;6.10;99.90
25963;DHT22;13760;52.588;13.406;2024-01-27T09:28:44;6.10;99.90
25963;DHT22;13760;52.588;13.406;2024-01-27T09:31:12;6.20;99.90
25963;DHT22;13760;52.588;13.406;2024-01-27T09:33:38;6.20;99.90
25963;DHT22;13760;52.588;13.406;2024-01-27T09:36:03;6.20;99.90
25963;DHT22;13760;52.588;13.406;2024-01-27T09:38:29;6.10;99.90
25963;DHT22;13760;52.588;13.406;2024-01-27T09:40:55;6.20;99.90
25963;DHT22;13760;52.588;13.406;2024-01-27T09:43:21;6.20;99.90
25963;DHT22;13760;52.588;13.406;2024-01-27T09:45:47;6.20;99.90
25963;DHT22;13760;52.588;13.406;2024-01-27T09:48:13;6.30;99.90
25963;DHT22;13760;52.588;13.406;2024-01-27T09:50:41;6.30;99.90
25963;DHT22;13760;52.588;13.406;2024-01-27T09:53:06;6.30;99.90
25963;DHT22;13760;52.588;13.406;2024-01-27T09:55:34;6.30;99.90
25963;DHT22;13760;52.588;13.406;2024-01-27T09:58:01;6.30;99.90
25963;DHT22;13760;52.588;13.406;2024-01-27T10:00:27;6.30;99.90
25963;DHT22;13760;52.588;13.406;2024-01-27T10:02:54;6.40;99.90
25963;DHT22;13760;52.588;13.406;2024-01-27T10:05:19;6.40;99.90
25963;DHT22;13760;52.588;13.406;2024-01-27T10:07:45;6.40;99.90
25963;DHT22;13760;52.588;13.406;2024-01-27T10:10:11;6.40;99.90
25963;DHT22;13760;52.588;13.406;2024-01-27T10:12:40;6.50;99.90
25963;DHT22;13760;52.588;13.406;2024-01-27T10:15:17;6.50;99.90
25963;DHT22;13760;52.588;13.406;2024-01-27T10:17:43;6.50;99.90
25963;DHT22;13760;52.588;13.406;2024-01-27T10:20:09;6.60;99.90
25963;DHT22;13760;52.588;13.406;2024-01-27T10:22:39;6.60;99.90
25963;DHT22;13760;52.588;13.406;2024-01-27T10:25:05;6.60;99.90
25963;DHT22;13760;52.588;13.406;2024-01-27T10:27:31;6.60;99.90
25963;DHT22;13760;52.588;13.406;2024-01-27T10:29:57;6.60;99.90
25963;DHT22;13760;52.588;13.406;2024-01-27T10:32:22;6.70;99.90
25963;DHT22;13760;52.588;13.406;2024-01-27T10:35:06;6.70;99.90
25963;DHT22;13760;52.588;13.406;2024-01-27T10:37:34;6.80;99.90
25963;DHT22;13760;52.588;13.406;2024-01-27T10:40:01;6.80;99.90
25963;DHT22;13760;52.588;13.406;2024-01-27T10:42:29;6.80;99.90
25963;DHT22;13760;52.588;13.406;2024-01-27T10:44:58;6.80;99.90
25963;DHT22;13760;52.588;13.406;2024-01-27T10:47:27;6.80;99.90
25963;DHT22;13760;52.588;13.406;2024-01-27T10:49:56;6.90;99.90
25963;DHT22;13760;52.588;13.406;2024-01-27T10:52:24;6.80;99.90
25963;DHT22;13760;52.588;13.406;2024-01-27T10:54:56;6.80;99.90
25963;DHT22;13760;52.588;13.406;2024-01-27T10:57:24;6.80;99.90
25963;DHT22;13760;52.588;13.406;2024-01-27T10:59:53;6.90;99.90
25963;DHT22;13760;52.588;13.406;2024-01-27T11:02:18;6.80;99.90
25963;DHT22;13760;52.588;13.406;2024-01-27T11:04:45;6.90;99.90
25963;DHT22;13760;52.588;13.406;2024-01-27T11:07:12;6.90;99.90
25963;DHT22;13760;52.588;13.406;2024-01-27T11:09:38;6.90;99.90
25963;DHT22;13760;52.588;13.406;2024-01-27T11:12:05;6.90;99.90
25963;DHT22;13760;52.588;13.406;2024-01-27T11:14:31;6.90;99.90
25963;DHT22;13760;52.588;13.406;2024-01-27T11:16:57;6.90;99.90
25963;DHT22;13760;52.588;13.406;2024-01-27T11:19:23;6.90;99.90
25963;DHT22;13760;52.588;13.406;2024-01-27T11:22:02;6.90;99.90
25963;DHT22;13760;52.588;13.406;2024-01-27T11:24:28;6.90;99.90
25963;DHT22;13760;52.588;13.406;2024-01-27T11:27:04;6.90;99.90
25963;DHT22;13760;52.588;13.406;2024-01-27T11:29:30;6.90;99.90
25963;DHT22;13760;52.588;13.406;2024-01-27T11:32:01;6.90;99.90
25963;DHT22;13760;52.588;13.406;2024-01-27T11:34:45;6.90;99.90
25963;DHT22;13760;52.588;13.406;2024-01-27T11:37:15;6.90;99.90
25963;DHT22;13760;52.588;13.406;2024-01-27T11:39:41;6.90;99.90
25963;DHT22;13760;52.588;13.406;2024-01-27T11:42:08;6.90;99.90
25963;DHT22;13760;52.588;13.406;2024-01-27T11:44:37;6.90;99.90
25963;DHT22;13760;52.588;13.406;2024-01-27T11:47:03;6.90;99.90
25963;DHT22;13760;52.588;13.406;2024-01-27T11:49:29;7.00;99.90
25963;DHT22;13760;52.588;13.406;2024-01-27T11:51:54;7.00;99.90
25963;DHT22;13760;52.588;13.406;2024-01-27T11:54:20;7.00;99.90
25963;DHT22;13760;52.588;13.406;2024-01-27T11:56:46;7.00;99.90
25963;DHT22;13760;52.588;13.406;2024-01-27T11:59:11;7.00;99.90
25963;DHT22;13760;52.588;13.406;2024-01-27T12:01:37;7.00;99.90
25963;DHT22;13760;52.588;13.406;2024-01-27T12:04:07;7.00;99.90
25963;DHT22;13760;52.588;13.406;2024-01-27T12:06:34;7.00;99.90
25963;DHT22;13760;52.588;13.406;2024-01-27T12:09:00;7.00;99.90
25963;DHT22;13760;52.588;13.406;2024-01-27T12:11:25;7.00;99.90
25963;DHT22;13760;52.588;13.406;2024-01-27T12:13:52;7.00;99.90
25963;DHT22;13760;52.588;13.406;2024-01-27T12:16:18;7.00;99.90
25963;DHT22;13760;52.588;13.406;2024-01-27T12:18:46;7.10;99.90
25963;DHT22;13760;52.588;13.406;2024-01-27T12:21:12;7.10;99.90
25963;DHT22;13760;52.588;13.406;2024-01-27T12:23:50;7.10;99.90
25963;DHT22;13760;52.588;13.406;2024-01-27T12:26:15;7.10;99.90
25963;DHT22;13760;52.588;13.406;2024-01-27T12:28:41;7.00;99.90
25963;DHT22;13760;52.588;13.406;2024-01-27T12:31:06;7.00;99.90
25963;DHT22;13760;52.588;13.406;2024-01-27T12:33:32;7.00;99.90
25963;DHT22;13760;52.588;13.406;2024-01-27T12:35:57;6.90;99.90
25963;DHT22;13760;52.588;13.406;2024-01-27T12:38:23;6.90;99.90
25963;DHT22;13760;52.588;13.406;2024-01-27T12:40:49;6.90;99.90
25963;DHT22;13760;52.588;13.406;2024-01-27T12:43:14;6.90;99.90
25963;DHT22;13760;52.588;13.406;2024-01-27T12:45:40;6.80;99.90
25963;DHT22;13760;52.588;13.406;2024-01-27T12:48:06;6.80;99.90
25963;DHT22;13760;52.588;13.406;2024-01-27T12:50:32;6.80;99.90
25963;DHT22;13760;52.588;13.406;2024-01-27T12:52:59;6.90;99.90
25963;DHT22;13760;52.588;13.406;2024-01-27T12:55:24;7.00;99.90
25963;DHT22;13760;52.588;13.406;2024-01-27T12:57:51;7.10;99.90
25963;DHT22;13760;52.588;13.406;2024-01-27T13:00:17;7.20;99.90
25963;DHT22;13760;52.588;13.406;2024-01-27T13:02:42;7.30;99.90
25963;DHT22;13760;52.588;13.406;2024-01-27T13:05:08;7.30;99.90
25963;DHT22;13760;52.588;13.406;2024-01-27T13:07:34;7.30;99.90
25963;DHT22;13760;52.588;13.406;2024-01-27T13:10:00;7.20;99.90
25963;DHT22;13760;52.588;13.406;2024-01-27T13:12:25;7.10;99.90
25963;DHT22;13760;52.588;13.406;2024-01-27T13:14:51;7.00;99.90
25963;DHT22;13760;52.588;13.406;2024-01-27T13:17:16;7.00;99.90
25963;DHT22;13760;52.588;13.406;2024-01-27T13:19:42;7.00;99.90
25963;DHT22;13760;52.588;13.406;2024-01-27T13:22:07;7.00;99.90
25963;DHT22;13760;52.588;13.406;2024-01-27T13:24:33;7.00;99.90
25963;DHT22;13760;52.588;13.406;2024-01-27T13:26:59;6.90;99.90
25963;DHT22;13760;52.588;13.406;2024-01-27T13:29:25;6.90;99.90
25963;DHT22;13760;52.588;13.406;2024-01-27T13:31:52;6.90;99.90
25963;DHT22;13760;52.588;13.406;2024-01-27T13:34:18;6.90;99.90
25963;DHT22;13760;52.588;13.406;2024-01-27T13:36:43;6.90;99.90
25963;DHT22;13760;52.588;13.406;2024-01-27T13:39:09;6.90;99.90
25963;DHT22;13760;52.588;13.406;2024-01-27T13:41:35;6.90;99.90
25963;DHT22;13760;52.588;13.406;2024-01-27T13:44:00;6.90;99.90
25963;DHT22;13760;52.588;13.406;2024-01-27T13:46:26;6.90;99.90
25963;DHT22;13760;52.588;13.406;2024-01-27T13:48:52;6.90;99.90
25963;DHT22;13760;52.588;13.406;2024-01-27T13:51:17;6.90;99.90
25963;DHT22;13760;52.588;13.406;2024-01-27T13:53:43;6.90;99.90
25963;DHT22;13760;52.588;13.406;2024-01-27T13:56:08;7.00;99.90
25963;DHT22;13760;52.588;13.406;2024-01-27T13:58:34;7.00;99.90
25963;DHT22;13760;52.588;13.406;2024-01-27T14:01:00;7.10;99.90
25963;DHT22;13760;52.588;13.406;2024-01-27T14:03:25;7.10;99.90
25963;DHT22;13760;52.588;13.406;2024-01-27T14:05:51;7.10;99.90
25963;DHT22;13760;52.588;13.406;2024-01-27T14:08:17;7.00;99.90
25963;DHT22;13760;52.588;13.406;2024-01-27T14:10:44;7.00;99.90
25963;DHT22;13760;52.588;13.406;2024-01-27T14:13:10;6.90;99.90
25963;DHT22;13760;52.588;13.406;2024-01-27T14:15:36;6.90;99.90
25963;DHT22;13760;52.588;13.406;2024-01-27T14:18:02;6.80;99.90
25963;DHT22;13760;52.588;13.406;2024-01-27T14:20:31;6.80;99.90
25963;DHT22;13760;52.588;13.406;2024-01-27T14:22:59;6.80;99.90
25963;DHT22;13760;52.588;13.406;2024-01-27T14:25:24;6.70;99.90
25963;DHT22;13760;52.588;13.406;2024-01-27T14:27:50;6.80;99.90
25963;DHT22;13760;52.588;13.406;2024-01-27T14:30:16;6.70;99.90
25963;DHT22;13760;52.588;13.406;2024-01-27T14:32:41;6.70;99.90
25963;DHT22;13760;52.588;13.406;2024-01-27T14:35:07;6.70;99.90
25963;DHT22;13760;52.588;13.406;2024-01-27T14:37:37;6.70;99.90
25963;DHT22;13760;52.588;13.406;2024-01-27T14:40:05;6.70;99.90
25963;DHT22;13760;52.588;13.406;2024-01-27T14:42:31;6.60;99.90
25963;DHT22;13760;52.588;13.406;2024-01-27T14:44:56;6.60;99.90
25963;DHT22;13760;52.588;13.406;2024-01-27T14:47:22;6.60;99.90
25963;DHT22;13760;52.588;13.406;2024-01-27T14:49:47;6.60;99.90
25963;DHT22;13760;52.588;13.406;2024-01-27T14:52:13;6.60;99.90
25963;DHT22;13760;52.588;13.406;2024-01-27T14:54:39;6.50;99.90
25963;DHT22;13760;52.588;13.406;2024-01-27T14:57:05;6.50;99.90
25963;DHT22;13760;52.588;13.406;2024-01-27T14:59:34;6.50;99.90
25963;DHT22;13760;52.588;13.406;2024-01-27T15:02:00;6.50;99.90
25963;DHT22;13760;52.588;13.406;2024-01-27T15:04:25;6.50;99.90
25963;DHT22;13760;52.588;13.406;2024-01-27T15:06:55;6.50;99.90
25963;DHT22;13760;52.588;13.406;2024-01-27T15:09:22;6.50;99.90
25963;DHT22;13760;52.588;13.406;2024-01-27T15:11:49;6.50;99.90
25963;DHT22;13760;52.588;13.406;2024-01-27T15:14:14;6.50;99.90
25963;DHT22;13760;52.588;13.406;2024-01-27T15:16:40;6.40;99.90
25963;DHT22;13760;52.588;13.406;2024-01-27T15:19:05;6.40;99.90
25963;DHT22;13760;52.588;13.406;2024-01-27T15:21:31;6.40;99.90
25963;DHT22;13760;52.588;13.406;2024-01-27T15:23:57;6.30;99.90
25963;DHT22;13760;52.588;13.406;2024-01-27T15:26:22;6.30;99.90